NWS2065 UUEE-UWUU
Flight info
| Callsign | NWS2065 |
|---|---|
| Flight time | N/A |
| Altitude | 35000 |
| Route | KOGOM3H KOGOM L94 EKPIR M864 INKEB L94 UNORO T788 NAMUD L994 DILUP DILUP3L |
| Aircraft | A321/M-SDFGHIRWY/LB1 |
Departure
| Time | N/A |
|---|---|
| Airport | Sheremetyevo International Airport (UUEE) |
Arrival
| Time | 2026-04-27 12:01 |
|---|---|
| Airport | Ufa International Airport (UWUU) |
| Time | Latitude | Longitude | Altitude | Speed | Heading |
|---|---|---|---|---|---|
| 2026-04-27 11:41 | 54.51155 | 53.62106 | 29339 ft | 376 kts | 116° |
| 2026-04-27 11:41 | 54.50460 | 53.66411 | 28912 ft | 368 kts | 116° |
| 2026-04-27 11:42 | 54.49788 | 53.70572 | 28759 ft | 354 kts | 116° |
| 2026-04-27 11:42 | 54.49134 | 53.74593 | 27907 ft | 345 kts | 117° |
| 2026-04-27 11:42 | 54.48481 | 53.78561 | 26562 ft | 345 kts | 117° |
| 2026-04-27 11:42 | 54.47830 | 53.82492 | 25196 ft | 347 kts | 116° |
| 2026-04-27 11:43 | 54.47163 | 53.86516 | 23999 ft | 352 kts | 116° |
| 2026-04-27 11:43 | 54.46506 | 53.90550 | 23613 ft | 350 kts | 115° |
| 2026-04-27 11:43 | 54.45854 | 53.94585 | 23304 ft | 349 kts | 115° |
| 2026-04-27 11:43 | 54.45207 | 53.98592 | 22870 ft | 347 kts | 115° |
| 2026-04-27 11:44 | 54.44558 | 54.02576 | 22406 ft | 346 kts | 115° |
| 2026-04-27 11:44 | 54.43907 | 54.06542 | 21953 ft | 344 kts | 115° |
| 2026-04-27 11:44 | 54.43258 | 54.10484 | 21494 ft | 341 kts | 115° |
| 2026-04-27 11:44 | 54.42612 | 54.14401 | 21046 ft | 339 kts | 115° |
| 2026-04-27 11:45 | 54.41967 | 54.18284 | 20589 ft | 339 kts | 115° |
| 2026-04-27 11:45 | 54.41538 | 54.20864 | 20317 ft | 338 kts | 115° |
| 2026-04-27 11:45 | 54.40678 | 54.26039 | 19759 ft | 335 kts | 115° |
| 2026-04-27 11:45 | 54.40039 | 54.29872 | 19353 ft | 333 kts | 115° |
| 2026-04-27 11:46 | 54.39400 | 54.33690 | 18942 ft | 331 kts | 115° |
| 2026-04-27 11:46 | 54.38765 | 54.37479 | 18522 ft | 330 kts | 115° |
| 2026-04-27 11:46 | 54.38158 | 54.41217 | 18107 ft | 330 kts | 111° |
| 2026-04-27 11:46 | 54.38024 | 54.45194 | 17438 ft | 340 kts | 88° |
| 2026-04-27 11:47 | 54.38715 | 54.49088 | 16279 ft | 344 kts | 70° |
| 2026-04-27 11:47 | 54.39753 | 54.52774 | 15380 ft | 341 kts | 68° |
| 2026-04-27 11:47 | 54.40788 | 54.56421 | 15020 ft | 339 kts | 69° |
| 2026-04-27 11:47 | 54.41780 | 54.60082 | 14736 ft | 336 kts | 70° |
| 2026-04-27 11:48 | 54.42731 | 54.63734 | 14378 ft | 334 kts | 70° |
| 2026-04-27 11:48 | 54.43664 | 54.67369 | 13994 ft | 331 kts | 70° |
| 2026-04-27 11:48 | 54.44563 | 54.70897 | 13500 ft | 315 kts | 70° |
| 2026-04-27 11:48 | 54.45433 | 54.74334 | 12996 ft | 312 kts | 70° |
| 2026-04-27 11:49 | 54.46293 | 54.77752 | 12641 ft | 310 kts | 70° |
| 2026-04-27 11:49 | 54.47146 | 54.81142 | 12306 ft | 308 kts | 70° |
| 2026-04-27 11:49 | 54.47992 | 54.84515 | 11904 ft | 306 kts | 70° |
| 2026-04-27 11:49 | 54.48830 | 54.87860 | 11495 ft | 303 kts | 70° |
| 2026-04-27 11:50 | 54.49655 | 54.91157 | 11094 ft | 305 kts | 70° |
| 2026-04-27 11:50 | 54.50483 | 54.94463 | 10526 ft | 297 kts | 70° |
| 2026-04-27 11:50 | 54.51296 | 54.97722 | 10271 ft | 295 kts | 70° |
| 2026-04-27 11:50 | 54.52104 | 55.00970 | 10110 ft | 294 kts | 71° |
| 2026-04-27 11:51 | 54.52907 | 55.04202 | 9973 ft | 294 kts | 70° |
| 2026-04-27 11:51 | 54.53710 | 55.07439 | 9775 ft | 293 kts | 70° |
| 2026-04-27 11:51 | 54.55294 | 55.13830 | 9003 ft | 288 kts | 71° |
| 2026-04-27 11:52 | 54.56074 | 55.16981 | 8604 ft | 284 kts | 71° |
| 2026-04-27 11:52 | 54.56843 | 55.20093 | 8211 ft | 281 kts | 72° |
| 2026-04-27 11:52 | 54.57605 | 55.23183 | 7913 ft | 279 kts | 72° |
| 2026-04-27 11:52 | 54.58360 | 55.26257 | 7684 ft | 278 kts | 73° |
| 2026-04-27 11:53 | 54.59217 | 55.29250 | 7421 ft | 281 kts | 61° |
| 2026-04-27 11:53 | 54.60424 | 55.31918 | 7092 ft | 281 kts | 55° |
| 2026-04-27 11:53 | 54.61677 | 55.34497 | 6714 ft | 279 kts | 55° |
| 2026-04-27 11:53 | 54.62917 | 55.37061 | 6370 ft | 276 kts | 56° |
| 2026-04-27 11:54 | 54.64135 | 55.39599 | 5878 ft | 273 kts | 57° |
| 2026-04-27 11:54 | 54.65335 | 55.42118 | 5527 ft | 270 kts | 57° |
| 2026-04-27 11:54 | 54.66526 | 55.44624 | 5223 ft | 269 kts | 57° |
| 2026-04-27 11:54 | 54.67706 | 55.47113 | 4918 ft | 266 kts | 57° |
| 2026-04-27 11:55 | 54.68869 | 55.49572 | 4577 ft | 262 kts | 58° |
| 2026-04-27 11:55 | 54.69986 | 55.51929 | 4221 ft | 250 kts | 58° |
| 2026-04-27 11:55 | 54.71084 | 55.54269 | 3884 ft | 250 kts | 59° |
| 2026-04-27 11:55 | 54.71872 | 55.56835 | 3509 ft | 234 kts | 86° |
| 2026-04-27 11:56 | 54.71831 | 55.59465 | 3212 ft | 218 kts | 111° |
| 2026-04-27 11:56 | 54.71388 | 55.62017 | 2993 ft | 219 kts | 115° |
| 2026-04-27 11:56 | 54.70946 | 55.64480 | 2710 ft | 214 kts | 114° |
| 2026-04-27 11:56 | 54.70522 | 55.66931 | 2390 ft | 208 kts | 113° |
| 2026-04-27 11:57 | 54.70140 | 55.69203 | 2060 ft | 189 kts | 114° |
| 2026-04-27 11:57 | 54.69771 | 55.71377 | 1945 ft | 188 kts | 115° |
| 2026-04-27 11:57 | 54.69192 | 55.73326 | 1947 ft | 179 kts | 140° |
| 2026-04-27 11:57 | 54.68194 | 55.74556 | 1963 ft | 176 kts | 156° |
| 2026-04-27 11:58 | 54.67093 | 55.75482 | 1974 ft | 176 kts | 154° |
| 2026-04-27 11:58 | 54.66020 | 55.76504 | 1996 ft | 176 kts | 153° |
| 2026-04-27 11:58 | 54.64950 | 55.77538 | 1998 ft | 175 kts | 153° |
| 2026-04-27 11:58 | 54.63948 | 55.78512 | 1995 ft | 147 kts | 154° |
| 2026-04-27 11:59 | 54.63125 | 55.79306 | 1850 ft | 131 kts | 155° |
| 2026-04-27 11:59 | 54.62340 | 55.80065 | 1674 ft | 130 kts | 155° |
| 2026-04-27 11:59 | 54.61551 | 55.80829 | 1487 ft | 130 kts | 155° |
| 2026-04-27 11:59 | 54.60759 | 55.81595 | 1305 ft | 128 kts | 153° |
| 2026-04-27 12:00 | 54.59976 | 55.82350 | 1089 ft | 131 kts | 153° |
| 2026-04-27 12:00 | 54.59206 | 55.83116 | 952 ft | 129 kts | 155° |
| 2026-04-27 12:00 | 54.58419 | 55.83880 | 738 ft | 130 kts | 155° |
| 2026-04-27 12:00 | 54.57625 | 55.84638 | 566 ft | 129 kts | 153° |
| 2026-04-27 12:01 | 54.56861 | 55.85368 | 459 ft | 113 kts | 152° |
| 2026-04-27 12:01 | 54.56285 | 55.85921 | 457 ft | 72 kts | 150° |
| 2026-04-27 12:01 | 54.56009 | 55.86186 | 459 ft | 24 kts | 150° |
| 2026-04-27 12:01 | 54.55856 | 55.86346 | 456 ft | 28 kts | 112° |
| 2026-04-27 12:02 | 54.55925 | 55.86657 | 455 ft | 31 kts | 63° |
| 2026-04-27 12:02 | 54.56036 | 55.86987 | 455 ft | 33 kts | 65° |
| 2026-04-27 12:02 | 54.56152 | 55.87348 | 455 ft | 36 kts | 61° |
| 2026-04-27 12:02 | 54.56233 | 55.87613 | 455 ft | 0 kts | 44° |
| 2026-04-27 12:03 | 54.56240 | 55.87625 | 455 ft | 4 kts | 47° |
| 2026-04-27 12:03 | 54.56264 | 55.87688 | 455 ft | 9 kts | 61° |
| 2026-04-27 12:03 | 54.56303 | 55.87809 | 456 ft | 15 kts | 60° |
| 2026-04-27 12:03 | 54.56360 | 55.87979 | 455 ft | 18 kts | 59° |
| 2026-04-27 12:04 | 54.56426 | 55.88188 | 455 ft | 21 kts | 73° |
| 2026-04-27 12:04 | 54.56436 | 55.88241 | 455 ft | 2 kts | 66° |
| 2026-04-27 12:04 | 54.56450 | 55.88285 | 455 ft | 6 kts | 65° |
| 2026-04-27 12:04 | 54.56463 | 55.88333 | 455 ft | 2 kts | 61° |
| 2026-04-27 12:05 | 54.56464 | 55.88334 | 455 ft | 0 kts | 61° |